Time;durP1;ratioP1;P1;durP2;ratioP2;P2;SDS_P1;SDS_P2;PMS_P1;PMS_P2;Temp;Humidity;BMP_temperature;BMP_pressure;BME280_temperature;BME280_humidity;BME280_pressure;Samples;Min_cycle;Max_cycle;Signal;HPM_P1;HPM_P2
2021/11/30 00:01:46;;;;;;;19.43;9.23;;;1.50;99.90;;;;;;5092613;28;20214;-81
2021/11/30 00:04:14;;;;;;;18.87;11.13;;;1.50;99.90;;;;;;5093055;28;20182;-79
2021/11/30 00:06:41;;;;;;;15.93;9.37;;;;;;;;;;5094128;28;20667;-79
2021/11/30 00:12:07;;;;;;;18.07;7.90;;;1.50;99.90;;;;;;5096010;28;20264;-79
2021/11/30 00:14:35;;;;;;;14.73;9.27;;;1.40;99.90;;;;;;5092392;28;20174;-82
2021/11/30 00:17:02;;;;;;;19.40;10.80;;;1.50;99.90;;;;;;5094291;28;20647;-78
2021/11/30 00:19:27;;;;;;;17.77;11.83;;;1.50;99.90;;;;;;5093293;28;20199;-78
2021/11/30 00:21:54;;;;;;;20.93;11.77;;;1.10;99.90;;;;;;5094378;28;20179;-79
2021/11/30 00:24:21;;;;;;;15.97;9.37;;;;;;;;;;5093259;28;20213;-79
2021/11/30 00:26:48;;;;;;;21.60;10.97;;;;;;;;;;5109562;28;20305;-78
2021/11/30 00:29:14;;;;;;;18.47;10.40;;;;;;;;;;5093707;28;20678;-79
2021/11/30 00:31:40;;;;;;;17.03;9.40;;;;;;;;;;5092736;28;20185;-78
2021/11/30 00:34:06;;;;;;;15.33;9.17;;;;;;;;;;5109998;28;20178;-79
2021/11/30 00:36:31;;;;;;;18.00;9.40;;;1.40;99.90;;;;;;5094233;28;20667;-79
2021/11/30 00:38:57;;;;;;;13.53;7.73;;;;;;;;;;5092601;28;20186;-79
2021/11/30 00:41:23;;;;;;;14.80;7.43;;;;;;;;;;5092257;28;20644;-79
2021/11/30 00:43:51;;;;;;;12.47;7.30;;;;;;;;;;5092320;28;20186;-79
2021/11/30 00:46:20;;;;;;;12.57;7.50;;;;;;;;;;5092494;28;20241;-79
2021/11/30 00:48:46;;;;;;;16.83;8.57;;;;;;;;;;5093742;28;20174;-79
2021/11/30 00:51:19;;;;;;;16.50;11.00;;;1.40;99.90;;;;;;5093826;28;20175;-79
2021/11/30 00:53:49;;;;;;;9.97;6.03;;;1.40;99.90;;;;;;5093095;28;20274;-80
2021/11/30 00:56:15;;;;;;;18.00;9.40;;;1.60;99.90;;;;;;5093153;28;20174;-78
2021/11/30 00:58:42;;;;;;;19.07;10.60;;;1.40;99.90;;;;;;5092728;28;20536;-81
2021/11/30 01:01:08;;;;;;;18.33;10.23;;;;;;;;;;5092295;28;20192;-79
2021/11/30 01:03:33;;;;;;;17.43;9.67;;;1.20;99.90;;;;;;5092512;28;20184;-80
2021/11/30 01:05:59;;;;;;;16.00;9.97;;;1.50;99.90;;;;;;5093555;28;20570;-80
2021/11/30 01:08:25;;;;;;;19.70;10.77;;;1.40;99.90;;;;;;5092756;28;20189;-80
2021/11/30 01:10:51;;;;;;;18.87;9.33;;;1.40;99.90;;;;;;5093500;28;20262;-79
2021/11/30 01:13:19;;;;;;;17.37;8.60;;;1.30;99.90;;;;;;5108111;28;20243;-80
2021/11/30 01:15:45;;;;;;;15.93;9.50;;;;;;;;;;5092009;28;20178;-84
2021/11/30 01:18:11;;;;;;;15.50;9.33;;;;;;;;;;5092426;28;20174;-80
2021/11/30 01:20:37;;;;;;;18.00;10.87;;;0.90;99.90;;;;;;5093885;28;20631;-80
2021/11/30 01:23:05;;;;;;;20.10;11.23;;;1.40;99.90;;;;;;5093367;28;20193;-80
2021/11/30 01:25:31;;;;;;;19.03;11.17;;;;;;;;;;5093459;28;20205;-80
2021/11/30 01:27:57;;;;;;;15.97;8.37;;;;;;;;;;5091816;28;20213;-80
2021/11/30 01:30:22;;;;;;;16.30;8.57;;;1.40;99.90;;;;;;5092007;28;20182;-81
2021/11/30 01:32:48;;;;;;;17.33;9.67;;;1.90;99.90;;;;;;5091855;28;20658;-81
2021/11/30 01:35:16;;;;;;;18.27;12.03;;;1.70;99.90;;;;;;5093228;28;20673;-80
2021/11/30 01:37:42;;;;;;;16.90;9.53;;;1.50;99.90;;;;;;5091982;28;20181;-81
2021/11/30 01:40:12;;;;;;;20.33;9.53;;;1.60;99.90;;;;;;5092953;28;20272;-80
2021/11/30 01:42:41;;;;;;;16.50;9.20;;;1.70;99.90;;;;;;5093247;28;20192;-80
2021/11/30 01:45:10;;;;;;;17.37;10.90;;;1.60;99.90;;;;;;5092996;28;20178;-80
2021/11/30 01:50:08;;;;;;;21.20;9.73;;;1.60;99.90;;;;;;5092185;28;20182;-80
2021/11/30 01:52:34;;;;;;;18.47;10.60;;;;;;;;;;5092596;28;20638;-81
2021/11/30 01:55:00;;;;;;;22.30;12.43;;;1.60;99.90;;;;;;5092165;28;20198;-80
2021/11/30 01:57:26;;;;;;;18.17;10.83;;;1.60;99.90;;;;;;5092023;28;20271;-80
2021/11/30 01:59:54;;;;;;;12.10;6.80;;;1.60;99.90;;;;;;5092157;28;20179;-80
2021/11/30 02:02:21;;;;;;;17.43;10.10;;;1.60;99.90;;;;;;5092942;28;20183;-80
2021/11/30 02:04:48;;;;;;;19.43;10.13;;;1.70;99.90;;;;;;5093478;28;20262;-80
2021/11/30 02:07:14;;;;;;;17.83;10.20;;;1.70;99.90;;;;;;5094418;28;20238;-80
2021/11/30 02:09:41;;;;;;;15.23;8.80;;;1.70;99.90;;;;;;5091694;28;20182;-80
2021/11/30 02:12:08;;;;;;;20.63;12.63;;;1.70;99.90;;;;;;5092551;28;20270;-79
2021/11/30 02:14:36;;;;;;;16.13;9.10;;;1.70;99.90;;;;;;5091544;28;20195;-80
2021/11/30 02:17:03;;;;;;;14.07;8.47;;;1.60;99.90;;;;;;5092545;28;20300;-80
2021/11/30 02:19:29;;;;;;;13.80;8.67;;;1.70;99.90;;;;;;5093044;28;20179;-79
2021/11/30 02:21:55;;;;;;;14.13;8.33;;;1.70;99.90;;;;;;5108237;28;20252;-79
2021/11/30 02:24:21;;;;;;;14.83;9.37;;;;;;;;;;5094203;28;20213;-81
2021/11/30 02:26:47;;;;;;;19.13;11.37;;;1.60;99.90;;;;;;5095341;28;20218;-79
2021/11/30 02:29:13;;;;;;;12.67;7.63;;;1.80;99.90;;;;;;5094167;28;20533;-81
2021/11/30 02:31:47;;;;;;;17.97;9.53;;;1.60;99.90;;;;;;5096099;28;20623;-80
2021/11/30 02:34:14;;;;;;;15.63;8.90;;;1.60;99.90;;;;;;5096659;28;20158;-80
2021/11/30 02:39:11;;;;;;;13.63;8.83;;;1.60;99.90;;;;;;5096510;28;20189;-80
2021/11/30 02:41:38;;;;;;;18.63;11.70;;;1.60;99.90;;;;;;5094948;28;20232;-80
2021/11/30 02:44:05;;;;;;;14.97;8.70;;;1.60;99.90;;;;;;5096159;28;20174;-80
2021/11/30 02:46:39;;;;;;;18.73;10.43;;;1.60;99.90;;;;;;5096301;28;20628;-80
2021/11/30 02:49:12;;;;;;;14.67;8.23;;;1.60;99.90;;;;;;5094887;28;20596;-80
2021/11/30 02:51:41;;;;;;;14.40;9.03;;;1.70;99.90;;;;;;5095085;28;20546;-80
2021/11/30 02:54:09;;;;;;;14.97;9.50;;;1.70;99.90;;;;;;5095939;28;20197;-80
2021/11/30 02:56:43;;;;;;;17.53;10.60;;;1.80;99.90;;;;;;5096364;28;20179;-80
2021/11/30 02:59:09;;;;;;;17.50;9.40;;;1.80;99.90;;;;;;5095488;28;20181;-79
2021/11/30 03:01:36;;;;;;;17.13;11.03;;;1.80;99.90;;;;;;5113220;28;20183;-79
2021/11/30 03:04:14;;;;;;;14.70;9.70;;;1.70;99.90;;;;;;5095633;28;20217;-79
2021/11/30 03:06:40;;;;;;;16.90;9.57;;;1.70;99.90;;;;;;5113214;28;20206;-79
2021/11/30 03:09:08;;;;;;;15.77;9.00;;;1.70;99.90;;;;;;5113785;28;20201;-79
2021/11/30 03:11:34;;;;;;;15.97;9.30;;;1.70;99.90;;;;;;5095766;28;20256;-80
2021/11/30 03:14:00;;;;;;;18.77;9.10;;;1.80;99.90;;;;;;5094677;28;20517;-79
2021/11/30 03:16:25;;;;;;;15.77;9.73;;;1.80;99.90;;;;;;5095285;28;20236;-79
2021/11/30 03:18:51;;;;;;;15.77;8.53;;;1.80;99.90;;;;;;5095373;28;20175;-79
2021/11/30 03:21:17;;;;;;;15.73;9.13;;;1.70;99.90;;;;;;5111075;28;20192;-80
2021/11/30 03:23:43;;;;;;;15.30;8.50;;;1.60;99.90;;;;;;5095619;28;20508;-80
2021/11/30 03:26:10;;;;;;;15.73;9.30;;;1.70;99.90;;;;;;5095480;28;20241;-80
2021/11/30 03:28:36;;;;;;;15.63;9.07;;;1.70;99.90;;;;;;5095369;28;20175;-80
2021/11/30 03:31:07;;;;;;;13.10;9.10;;;1.60;99.90;;;;;;5095031;28;20171;-80
2021/11/30 03:36:19;;;;;;;13.27;6.87;;;1.60;99.90;;;;;;5094123;28;20266;-80
2021/11/30 03:38:45;;;;;;;16.20;8.50;;;1.60;99.90;;;;;;5094078;28;20193;-80
2021/11/30 03:41:12;;;;;;;15.90;8.40;;;1.50;99.90;;;;;;5093647;28;20178;-80
2021/11/30 03:43:38;;;;;;;11.33;7.27;;;1.60;99.90;;;;;;5092604;28;20188;-81
2021/11/30 03:46:04;;;;;;;9.70;5.33;;;1.50;99.90;;;;;;5094647;28;20217;-80
2021/11/30 03:48:30;;;;;;;12.37;7.67;;;1.50;99.90;;;;;;5094723;28;20186;-79
2021/11/30 03:50:57;;;;;;;14.73;8.57;;;1.60;99.90;;;;;;5093812;28;20267;-80
2021/11/30 03:53:23;;;;;;;13.27;8.23;;;1.60;99.90;;;;;;5094527;28;20673;-80
2021/11/30 03:55:49;;;;;;;13.17;7.97;;;1.50;99.90;;;;;;5094669;28;20189;-81
2021/11/30 03:58:15;;;;;;;14.30;7.27;;;1.50;99.90;;;;;;5093436;28;20182;-80
2021/11/30 04:00:41;;;;;;;12.27;7.77;;;1.40;99.90;;;;;;5094543;28;20204;-80
2021/11/30 04:03:07;;;;;;;11.73;7.47;;;1.40;99.90;;;;;;5094590;28;20207;-86
2021/11/30 04:05:33;;;;;;;13.23;7.00;;;1.40;99.90;;;;;;5094194;28;20221;-81
2021/11/30 04:07:59;;;;;;;9.20;5.20;;;1.30;99.90;;;;;;5094779;28;20179;-81
2021/11/30 04:10:25;;;;;;;12.23;6.00;;;1.30;99.90;;;;;;5093891;28;20214;-81
2021/11/30 04:12:51;;;;;;;6.63;4.47;;;;;;;;;;5094991;28;20213;-81
2021/11/30 04:15:18;;;;;;;11.87;5.23;;;1.30;99.90;;;;;;5093916;28;20182;-81
2021/11/30 04:17:43;;;;;;;6.63;5.20;;;1.30;99.90;;;;;;5093247;28;20213;-81
2021/11/30 04:20:11;;;;;;;7.37;4.77;;;1.40;99.90;;;;;;5093551;28;20210;-82
2021/11/30 04:22:37;;;;;;;9.80;5.10;;;1.40;99.90;;;;;;5095002;28;20170;-80
2021/11/30 04:25:04;;;;;;;10.40;6.17;;;1.40;99.90;;;;;;5093525;28;20634;-81
2021/11/30 04:27:31;;;;;;;6.07;3.77;;;;;;;;;;5093005;28;20992;-80
2021/11/30 04:29:57;;;;;;;7.17;4.73;;;1.40;99.90;;;;;;5092780;28;20183;-81
2021/11/30 04:32:23;;;;;;;5.93;3.97;;;1.00;99.90;;;;;;5092798;28;20181;-81
2021/11/30 04:34:49;;;;;;;6.50;4.80;;;1.40;99.90;;;;;;5092949;28;20182;-81
2021/11/30 04:37:15;;;;;;;8.63;4.70;;;1.60;99.90;;;;;;5093755;28;20496;-81
2021/11/30 04:39:40;;;;;;;6.40;4.90;;;1.40;99.90;;;;;;5093800;28;20174;-80
2021/11/30 04:42:06;;;;;;;6.97;4.63;;;1.40;99.90;;;;;;5094028;28;20190;-80
2021/11/30 04:44:34;;;;;;;7.80;4.30;;;1.30;99.90;;;;;;5108445;28;20176;-81
2021/11/30 04:47:05;;;;;;;8.50;5.23;;;1.40;99.90;;;;;;5109204;28;20654;-81
2021/11/30 04:52:01;;;;;;;5.83;4.27;;;1.50;99.90;;;;;;5093972;28;20248;-81
2021/11/30 04:54:27;;;;;;;5.53;4.50;;;1.50;99.90;;;;;;5093367;28;20634;-80
2021/11/30 04:56:54;;;;;;;6.20;4.97;;;;;;;;;;5093964;28;20622;-80
2021/11/30 04:59:21;;;;;;;8.93;5.17;;;1.50;99.90;;;;;;5093753;28;20176;-80
2021/11/30 05:01:47;;;;;;;7.17;5.00;;;1.70;99.90;;;;;;5109513;28;20232;-82
2021/11/30 05:04:14;;;;;;;7.13;4.70;;;1.80;99.90;;;;;;5093773;28;20178;-80
2021/11/30 05:06:40;;;;;;;7.17;5.10;;;1.50;99.90;;;;;;5094262;28;20671;-80
2021/11/30 05:09:07;;;;;;;8.47;5.07;;;1.60;99.90;;;;;;5092645;28;20224;-81
2021/11/30 05:11:33;;;;;;;10.37;5.80;;;;;;;;;;5092318;28;20222;-81
2021/11/30 05:13:59;;;;;;;7.27;4.40;;;1.50;99.90;;;;;;5111647;28;20262;-80
2021/11/30 05:16:26;;;;;;;8.70;6.00;;;1.60;99.90;;;;;;5094876;28;20216;-81
2021/11/30 05:18:52;;;;;;;9.00;4.97;;;1.40;99.90;;;;;;5093331;28;20205;-81
2021/11/30 05:21:19;;;;;;;10.10;6.30;;;;;;;;;;5092423;28;20543;-81
2021/11/30 05:23:45;;;;;;;11.20;7.03;;;;;;;;;;5093585;28;20174;-80
2021/11/30 05:26:11;;;;;;;11.40;5.93;;;;;;;;;;5093275;28;20650;-80
2021/11/30 05:28:39;;;;;;;7.77;6.13;;;1.40;99.90;;;;;;5095313;28;20175;-80
2021/11/30 05:31:07;;;;;;;10.67;6.90;;;1.50;99.90;;;;;;5094944;28;20201;-81
2021/11/30 05:33:33;;;;;;;10.17;6.30;;;1.40;99.90;;;;;;5112114;28;20237;-80
2021/11/30 05:36:01;;;;;;;10.77;6.63;;;1.40;99.90;;;;;;5109838;28;20232;-80
2021/11/30 05:38:27;;;;;;;10.03;6.57;;;1.40;99.90;;;;;;5117737;28;20177;-81
2021/11/30 05:40:53;;;;;;;11.30;6.90;;;1.30;99.90;;;;;;5117753;28;20171;-80
2021/11/30 05:43:19;;;;;;;10.17;6.87;;;1.20;99.90;;;;;;5103314;28;20167;-79
2021/11/30 05:45:45;;;;;;;11.20;6.97;;;1.20;99.90;;;;;;5094412;28;20257;-80
2021/11/30 05:48:11;;;;;;;10.90;5.80;;;1.10;99.90;;;;;;5075790;28;20187;-81
2021/11/30 05:50:37;;;;;;;12.47;7.23;;;1.10;99.90;;;;;;5075338;28;20693;-81
2021/11/30 05:53:04;;;;;;;9.90;6.43;;;1.10;99.90;;;;;;5105777;28;20171;-87
2021/11/30 05:55:31;;;;;;;11.63;6.70;;;;;;;;;;5109771;28;20170;-82
2021/11/30 05:57:58;;;;;;;10.47;6.00;;;0.60;99.90;;;;;;5109876;28;20178;-84
2021/11/30 06:00:24;;;;;;;7.13;4.97;;;0.80;99.90;;;;;;5116087;28;20245;-82
2021/11/30 06:03:03;;;;;;;11.13;5.53;;;0.80;99.90;;;;;;5094470;28;20190;-81
2021/11/30 06:05:30;;;;;;;8.23;5.47;;;0.70;99.90;;;;;;5078217;28;20190;-79
2021/11/30 06:07:56;;;;;;;4.23;3.67;;;0.70;99.90;;;;;;5095726;28;20206;-79
2021/11/30 06:10:22;;;;;;;10.93;6.13;;;0.70;99.90;;;;;;5094643;28;20187;-79
2021/11/30 06:12:48;;;;;;;7.67;6.03;;;0.80;99.90;;;;;;5096071;28;20178;-80
2021/11/30 06:15:15;;;;;;;7.23;4.83;;;0.90;99.90;;;;;;5095300;28;20691;-80
2021/11/30 06:17:41;;;;;;;5.03;3.90;;;;;;;;;;5094022;28;20215;-79
2021/11/30 06:20:10;;;;;;;7.77;5.23;;;1.10;99.90;;;;;;5094318;28;20182;-78
2021/11/30 06:22:36;;;;;;;8.70;4.93;;;;;;;;;;5092856;28;20184;-80
2021/11/30 06:25:03;;;;;;;8.13;5.10;;;1.20;99.90;;;;;;5093555;28;20187;-79
2021/11/30 06:27:29;;;;;;;8.47;5.10;;;;;;;;;;5093005;28;20222;-81
2021/11/30 06:29:55;;;;;;;8.67;5.40;;;;;;;;;;5088262;28;20187;-80
2021/11/30 06:32:22;;;;;;;7.80;4.83;;;;;;;;;;5091740;28;20195;-79
2021/11/30 06:34:48;;;;;;;6.50;4.73;;;;;;;;;;5089665;28;20654;-82
2021/11/30 06:37:14;;;;;;;7.33;5.20;;;;;;;;;;5091481;28;20277;-81
2021/11/30 06:39:40;;;;;;;6.10;4.43;;;1.10;99.90;;;;;;5091467;28;20268;-81
2021/11/30 06:42:06;;;;;;;9.10;5.13;;;1.30;99.90;;;;;;5090601;28;20650;-80
2021/11/30 06:44:34;;;;;;;7.97;5.10;;;1.00;99.90;;;;;;5090015;28;20228;-80
2021/11/30 06:47:01;;;;;;;8.40;5.00;;;1.20;99.90;;;;;;5088271;28;20210;-80
2021/11/30 06:49:26;;;;;;;6.50;5.30;;;1.20;99.90;;;;;;5086292;28;20186;-81
2021/11/30 06:51:52;;;;;;;10.40;4.77;;;1.20;99.90;;;;;;5093155;28;20210;-81
2021/11/30 06:54:18;;;;;;;6.53;4.23;;;1.30;99.90;;;;;;5090478;28;20190;-79
2021/11/30 06:56:43;;;;;;;6.30;4.33;;;1.20;99.90;;;;;;5091873;28;20194;-81
2021/11/30 06:59:10;;;;;;;7.10;4.77;;;1.20;99.90;;;;;;5091979;28;20280;-84
2021/11/30 07:01:37;;;;;;;5.80;4.30;;;1.20;99.90;;;;;;5088099;28;20258;-80
2021/11/30 07:04:04;;;;;;;5.77;4.40;;;1.30;99.90;;;;;;5092024;28;20187;-80
2021/11/30 07:06:47;;;;;;;6.60;4.27;;;1.30;99.90;;;;;;5085434;28;20253;-80
2021/11/30 07:09:20;;;;;;;6.47;4.60;;;;;;;;;;5082541;28;20183;-82
2021/11/30 07:14:12;;;;;;;6.90;4.53;;;1.30;99.90;;;;;;5083670;28;20201;-80
2021/11/30 07:16:38;;;;;;;9.47;5.57;;;1.30;99.90;;;;;;5084018;28;20210;-82
2021/11/30 07:19:04;;;;;;;6.90;4.93;;;1.30;99.90;;;;;;5084892;28;20581;-84
2021/11/30 07:21:30;;;;;;;8.13;4.63;;;;;;;;;;5082754;28;20252;-82
2021/11/30 07:23:56;;;;;;;7.70;5.23;;;1.30;99.90;;;;;;5083860;28;20185;-80
2021/11/30 07:26:23;;;;;;;7.80;5.03;;;1.30;99.90;;;;;;5078267;28;20215;-81
2021/11/30 07:28:49;;;;;;;6.63;4.80;;;1.30;99.90;;;;;;5082495;28;20191;-81
2021/11/30 07:31:16;;;;;;;9.90;5.23;;;1.30;99.90;;;;;;5086383;28;20760;-81
2021/11/30 07:33:45;;;;;;;9.97;5.37;;;1.40;99.90;;;;;;5074022;28;20191;-82
2021/11/30 07:36:12;;;;;;;8.10;5.37;;;1.30;99.90;;;;;;5071285;28;20553;-82
2021/11/30 07:38:41;;;;;;;8.57;5.73;;;1.40;99.90;;;;;;5071555;28;20541;-82
2021/11/30 07:41:07;;;;;;;7.07;4.83;;;1.40;99.90;;;;;;5071611;28;20277;-82
2021/11/30 07:43:34;;;;;;;11.40;6.27;;;1.40;99.90;;;;;;5072511;28;20237;-81
2021/11/30 07:46:00;;;;;;;9.80;7.37;;;1.40;99.90;;;;;;5070402;28;20210;-82
2021/11/30 07:48:27;;;;;;;9.03;5.10;;;1.40;99.90;;;;;;5068434;28;20629;-80
2021/11/30 07:50:55;;;;;;;8.90;5.60;;;1.50;99.90;;;;;;5083418;28;20183;-82
2021/11/30 07:53:21;;;;;;;5.27;4.30;;;1.40;99.90;;;;;;5081304;28;20190;-79
2021/11/30 07:55:47;;;;;;;10.03;6.03;;;1.40;99.90;;;;;;5073568;28;20293;-81
2021/11/30 07:58:13;;;;;;;9.87;5.70;;;;;;;;;;5090674;28;20292;-81
2021/11/30 08:00:39;;;;;;;11.03;5.50;;;1.30;99.90;;;;;;5089489;28;20194;-84
2021/11/30 08:03:05;;;;;;;6.80;5.37;;;1.30;99.90;;;;;;5092166;28;20529;-81
2021/11/30 08:05:31;;;;;;;7.93;3.77;;;1.30;99.90;;;;;;5089918;28;20336;-82
2021/11/30 08:07:57;;;;;;;9.83;6.90;;;;;;;;;;5091269;28;20191;-81
2021/11/30 08:10:26;;;;;;;10.03;5.37;;;1.30;99.90;;;;;;5073312;28;20185;-81
2021/11/30 08:12:52;;;;;;;8.20;5.80;;;3.30;99.90;;;;;;5087260;28;20206;-80
2021/11/30 08:15:19;;;;;;;7.47;6.03;;;1.40;99.90;;;;;;5090613;28;20218;-79
2021/11/30 08:17:45;;;;;;;13.60;5.53;;;1.40;99.90;;;;;;5089163;28;20222;-83
2021/11/30 08:20:11;;;;;;;10.50;7.73;;;1.40;99.90;;;;;;5090208;28;20646;-81
2021/11/30 08:22:38;;;;;;;10.00;4.90;;;1.40;99.90;;;;;;5090393;28;20719;-82
2021/11/30 08:25:06;;;;;;;10.57;5.73;;;1.40;99.90;;;;;;5090221;28;20186;-81
2021/11/30 08:27:32;;;;;;;12.57;7.73;;;1.40;99.90;;;;;;5091456;28;20214;-84
2021/11/30 08:29:58;;;;;;;16.20;11.73;;;1.40;99.90;;;;;;5082134;28;20205;-81
2021/11/30 08:32:25;;;;;;;16.73;12.13;;;1.60;99.90;;;;;;5080362;28;20178;-81
2021/11/30 08:34:53;;;;;;;14.63;7.93;;;1.60;99.90;;;;;;5085463;28;20188;-82
2021/11/30 08:37:20;;;;;;;9.53;6.53;;;1.60;99.90;;;;;;5091009;28;20873;-81
2021/11/30 08:39:49;;;;;;;13.60;6.27;;;1.50;99.90;;;;;;5091405;28;20213;-86
2021/11/30 08:42:17;;;;;;;9.13;6.03;;;1.60;99.90;;;;;;5092423;28;20190;-80
2021/11/30 08:44:44;;;;;;;9.47;5.87;;;1.60;99.90;;;;;;5092295;28;20550;-81
2021/11/30 08:47:13;;;;;;;9.37;6.50;;;1.60;99.90;;;;;;5090934;28;20218;-83
2021/11/30 08:49:39;;;;;;;8.63;5.47;;;1.60;99.90;;;;;;5090511;28;20265;-81
2021/11/30 08:52:11;;;;;;;9.03;5.50;;;1.90;99.90;;;;;;5091134;28;20206;-81
2021/11/30 08:54:37;;;;;;;12.13;6.63;;;1.50;99.90;;;;;;5073530;28;20537;-80
2021/11/30 08:57:03;;;;;;;5.40;4.43;;;1.60;99.90;;;;;;5090965;28;20187;-81
2021/11/30 08:59:30;;;;;;;8.73;5.00;;;;;;;;;;5092046;28;20179;-82
2021/11/30 09:01:56;;;;;;;9.43;5.37;;;;;;;;;;5089914;28;20655;-81
2021/11/30 09:04:22;;;;;;;11.70;5.37;;;;;;;;;;5090494;28;20190;-81
2021/11/30 09:06:48;;;;;;;4.40;3.57;;;;;;;;;;5090917;28;20246;-81
2021/11/30 09:09:14;;;;;;;11.03;6.10;;;;;;;;;;5089882;28;20186;-81
2021/11/30 09:11:41;;;;;;;8.00;5.40;;;;;;;;;;5093000;28;20241;-81
2021/11/30 09:14:07;;;;;;;10.50;5.70;;;;;;;;;;5091718;28;20178;-82
2021/11/30 09:16:34;;;;;;;10.13;5.20;;;1.50;99.90;;;;;;5091698;28;20194;-82
2021/11/30 09:19:00;;;;;;;6.93;4.67;;;1.70;99.90;;;;;;5071483;28;20175;-82
2021/11/30 09:21:27;;;;;;;7.80;5.37;;;1.50;99.90;;;;;;5070917;28;20179;-82
2021/11/30 09:23:54;;;;;;;9.90;6.53;;;1.60;99.90;;;;;;5083589;28;20190;-82
2021/11/30 09:26:20;;;;;;;9.70;6.03;;;1.50;99.90;;;;;;5094427;28;20210;-80
2021/11/30 09:28:46;;;;;;;8.10;4.57;;;1.60;99.90;;;;;;5092521;28;20189;-80
2021/11/30 09:31:12;;;;;;;9.87;6.63;;;;;;;;;;5092508;28;20834;-81
2021/11/30 09:33:39;;;;;;;9.23;5.30;;;1.70;99.90;;;;;;5091621;28;20673;-83
2021/11/30 09:36:06;;;;;;;9.00;5.60;;;1.70;99.90;;;;;;5092834;28;20183;-81
2021/11/30 09:38:33;;;;;;;7.53;4.60;;;1.60;99.90;;;;;;5092354;28;20171;-81
2021/11/30 09:41:01;;;;;;;10.00;5.83;;;1.60;99.90;;;;;;5090451;28;20218;-80
2021/11/30 09:43:28;;;;;;;8.30;5.63;;;;;;;;;;5092555;28;20179;-81
2021/11/30 09:45:56;;;;;;;10.97;6.47;;;1.60;99.90;;;;;;5087993;28;20711;-80
2021/11/30 09:48:23;;;;;;;7.23;4.83;;;1.60;99.90;;;;;;5091796;28;20198;-82
2021/11/30 09:50:49;;;;;;;10.90;6.30;;;1.60;99.90;;;;;;5076113;28;20274;-81
2021/11/30 09:53:15;;;;;;;12.17;7.00;;;1.60;99.90;;;;;;5092839;28;20220;-81
2021/11/30 09:55:42;;;;;;;9.90;6.13;;;1.70;99.90;;;;;;5094067;28;20273;-85
2021/11/30 09:58:08;;;;;;;10.20;5.83;;;;;;;;;;5100747;28;20196;-80
2021/11/30 10:00:36;;;;;;;9.20;5.97;;;1.70;99.90;;;;;;5084272;28;20546;-79
2021/11/30 10:03:02;;;;;;;10.30;6.37;;;1.60;99.90;;;;;;5088278;28;20183;-79
2021/11/30 10:05:29;;;;;;;14.00;6.50;;;1.70;99.90;;;;;;5085805;28;20171;-79
2021/11/30 10:07:56;;;;;;;11.73;6.20;;;1.70;99.90;;;;;;5069286;28;20186;-81
2021/11/30 10:10:33;;;;;;;8.10;4.87;;;1.70;99.90;;;;;;5090958;28;20271;-80
2021/11/30 10:13:05;;;;;;;11.93;6.63;;;1.70;99.90;;;;;;5096834;28;20160;-94
2021/11/30 10:15:53;;;;;;;10.67;6.10;;;1.80;99.90;;;;;;5112902;28;20269;-80
2021/11/30 10:18:28;;;;;;;11.03;5.70;;;1.90;99.90;;;;;;5112221;28;20169;-80
2021/11/30 10:21:22;;;;;;;11.17;6.43;;;1.90;99.90;;;;;;5113256;28;20210;-81
2021/11/30 10:23:50;;;;;;;8.47;6.20;;;1.80;99.90;;;;;;5104825;28;20202;-85
2021/11/30 10:26:23;;;;;;;11.83;6.43;;;1.90;99.90;;;;;;5106392;28;20222;-80
2021/11/30 10:29:15;;;;;;;12.70;6.40;;;2.00;99.90;;;;;;5093387;28;20208;-80
2021/11/30 10:31:45;;;;;;;9.53;5.43;;;2.10;99.90;;;;;;5092519;28;20186;-80
2021/11/30 10:34:23;;;;;;;4.97;3.27;;;2.20;99.90;;;;;;5094455;28;20287;-80
2021/11/30 10:36:52;;;;;;;5.67;3.80;;;2.10;99.90;;;;;;5092346;28;20183;-81
2021/11/30 10:39:27;;;;;;;10.53;4.93;;;2.10;99.90;;;;;;5090075;28;20188;-81
2021/11/30 10:42:21;;;;;;;8.93;4.73;;;2.20;99.90;;;;;;5090313;28;20182;-81
2021/11/30 10:44:52;;;;;;;9.47;4.30;;;2.10;99.90;;;;;;5093251;28;20175;-80
2021/11/30 10:47:24;;;;;;;10.30;3.97;;;2.10;99.90;;;;;;5095881;28;20210;-80
2021/11/30 10:49:52;;;;;;;6.63;3.60;;;2.20;99.90;;;;;;5094942;28;20190;-81
2021/11/30 10:52:24;;;;;;;21.73;4.60;;;2.30;99.90;;;;;;5096209;28;20170;-80
2021/11/30 10:54:51;;;;;;;7.57;4.17;;;2.20;99.90;;;;;;5094895;28;20178;-80
2021/11/30 10:57:26;;;;;;;8.70;5.27;;;2.20;99.90;;;;;;5095454;28;20187;-79
2021/11/30 11:00:04;;;;;;;7.13;3.60;;;2.30;99.90;;;;;;5096846;28;20158;-81
2021/11/30 11:03:13;;;;;;;6.97;4.60;;;2.30;99.90;;;;;;5079599;28;20271;-81
2021/11/30 11:05:41;;;;;;;6.50;4.03;;;2.30;99.90;;;;;;5094413;28;20174;-84
2021/11/30 11:08:14;;;;;;;6.40;3.93;;;2.20;99.90;;;;;;5094114;28;20178;-83
2021/11/30 11:10:44;;;;;;;6.80;4.50;;;2.20;99.90;;;;;;5095525;28;20227;-81
2021/11/30 11:13:38;;;;;;;6.77;3.57;;;2.10;99.90;;;;;;5095589;28;20180;-80
2021/11/30 11:16:07;;;;;;;13.07;4.13;;;2.20;99.90;;;;;;5092977;28;20202;-82
2021/11/30 11:18:33;;;;;;;5.20;3.37;;;2.20;99.90;;;;;;5089257;28;20215;-80
2021/11/30 11:21:41;;;;;;;4.27;3.13;;;2.30;99.90;;;;;;5093863;28;20237;-80
2021/11/30 11:24:10;;;;;;;3.93;2.80;;;2.00;99.90;;;;;;5012520;28;20186;-81
2021/11/30 11:26:58;;;;;;;6.97;3.63;;;2.00;99.90;;;;;;5012871;28;20202;-81
2021/11/30 11:29:29;;;;;;;7.03;3.80;;;2.00;99.90;;;;;;5062639;28;20208;-80
2021/11/30 11:31:58;;;;;;;5.67;3.17;;;2.00;99.90;;;;;;5095296;28;20163;-81
2021/11/30 11:34:27;;;;;;;4.03;3.23;;;2.00;99.90;;;;;;5080809;28;20179;-80
2021/11/30 11:36:55;;;;;;;6.40;3.40;;;2.00;99.90;;;;;;5073719;28;20183;-80
2021/11/30 11:39:23;;;;;;;13.67;3.93;;;2.00;99.90;;;;;;5073512;28;20187;-80
2021/11/30 11:41:53;;;;;;;4.20;3.20;;;2.00;99.90;;;;;;5074772;28;20186;-81
2021/11/30 11:44:20;;;;;;;5.97;4.27;;;2.00;99.90;;;;;;5074938;28;20168;-82
2021/11/30 11:46:48;;;;;;;5.23;3.03;;;2.00;99.90;;;;;;5073710;28;20215;-82
2021/11/30 11:49:22;;;;;;;6.30;3.80;;;2.00;99.90;;;;;;5074003;28;20272;-84
2021/11/30 11:51:50;;;;;;;6.27;4.33;;;2.00;99.90;;;;;;5075232;28;20376;-82
2021/11/30 11:54:30;;;;;;;6.77;4.47;;;2.00;99.90;;;;;;5074862;28;20685;-84
2021/11/30 11:57:01;;;;;;;6.27;4.43;;;2.00;99.90;;;;;;5076252;28;20175;-82
2021/11/30 11:59:37;;;;;;;6.43;3.93;;;2.10;99.90;;;;;;5085316;28;20236;-81
2021/11/30 12:02:31;;;;;;;7.13;4.30;;;2.90;99.90;;;;;;5083760;28;20170;-82
2021/11/30 12:05:01;;;;;;;6.63;4.13;;;2.10;99.90;;;;;;5061010;28;20195;-83
2021/11/30 12:07:47;;;;;;;7.67;4.40;;;2.10;99.90;;;;;;5091166;28;20198;-82
2021/11/30 12:10:17;;;;;;;5.77;4.17;;;2.10;99.90;;;;;;5095139;28;20163;-82
2021/11/30 12:13:00;;;;;;;8.87;5.00;;;1.90;99.90;;;;;;5095138;28;20159;-81
2021/11/30 12:15:34;;;;;;;11.13;3.97;;;1.80;99.90;;;;;;5098037;28;20233;-84
2021/11/30 12:18:33;;;;;;;10.70;5.30;;;1.70;99.90;;;;;;5098294;28;20662;-80
2021/11/30 12:21:20;;;;;;;13.77;5.43;;;1.70;99.90;;;;;;5098163;28;20639;-81
2021/11/30 12:23:49;;;;;;;12.70;5.37;;;1.60;99.90;;;;;;5098143;28;20646;-80
2021/11/30 12:26:44;;;;;;;8.83;5.90;;;1.50;99.90;;;;;;5107588;28;20228;-82
2021/11/30 12:29:23;;;;;;;9.70;5.77;;;1.50;99.90;;;;;;5119561;28;20188;-80
2021/11/30 12:31:52;;;;;;;12.63;6.00;;;1.40;99.90;;;;;;5119101;28;20184;-80
2021/11/30 12:34:32;;;;;;;15.53;5.17;;;1.50;99.90;;;;;;5118295;28;20174;-81
2021/11/30 12:37:06;;;;;;;15.33;7.00;;;1.70;99.90;;;;;;5106083;28;20190;-81
2021/11/30 12:40:05;;;;;;;8.40;4.80;;;1.80;99.90;;;;;;5095919;28;20182;-80
2021/11/30 12:42:40;;;;;;;9.10;4.83;;;2.00;99.90;;;;;;5098558;28;20186;-84
2021/11/30 12:45:12;;;;;;;14.70;5.17;;;2.00;99.90;;;;;;5102840;28;20174;-82
2021/11/30 12:47:38;;;;;;;9.97;5.40;;;2.30;99.90;;;;;;5097975;28;20195;-88
2021/11/30 12:50:18;;;;;;;8.77;4.97;;;2.30;99.90;;;;;;5100990;28;20171;-82
2021/11/30 12:52:44;;;;;;;9.90;4.87;;;2.30;99.90;;;;;;5086543;28;20177;-81
2021/11/30 12:55:10;;;;;;;9.03;5.77;;;2.20;99.90;;;;;;5091884;28;20541;-82
2021/11/30 12:57:36;;;;;;;13.10;6.70;;;2.20;99.90;;;;;;5089026;28;20184;-82
2021/11/30 13:00:11;;;;;;;9.53;4.43;;;2.10;99.90;;;;;;5092075;28;20631;-81
2021/11/30 13:02:42;;;;;;;15.60;6.63;;;2.00;99.90;;;;;;5091513;28;20182;-84
2021/11/30 13:05:08;;;;;;;11.77;6.10;;;2.00;99.90;;;;;;5085309;28;20238;-81
2021/11/30 13:07:47;;;;;;;10.43;6.77;;;2.00;99.90;;;;;;5088889;28;20207;-83
2021/11/30 13:10:35;;;;;;;15.03;7.47;;;2.00;99.90;;;;;;5090253;28;20166;-83
2021/11/30 13:13:05;;;;;;;14.43;6.97;;;2.00;99.90;;;;;;5087881;28;20208;-82
2021/11/30 13:15:31;;;;;;;15.40;7.80;;;2.00;99.90;;;;;;5087610;28;20536;-80
2021/11/30 13:18:04;;;;;;;15.70;7.40;;;2.00;99.90;;;;;;5088791;28;20282;-80
2021/11/30 13:20:31;;;;;;;18.23;7.60;;;2.00;99.90;;;;;;5090153;28;20635;-82
2021/11/30 13:22:57;;;;;;;14.63;6.50;;;1.90;99.90;;;;;;5094750;28;20182;-85
2021/11/30 13:25:28;;;;;;;19.47;7.43;;;1.90;99.90;;;;;;5073603;28;20182;-81
2021/11/30 13:28:00;;;;;;;12.53;7.67;;;1.90;99.90;;;;;;5091042;28;20205;-82
2021/11/30 13:30:28;;;;;;;13.27;6.97;;;1.80;99.90;;;;;;5091602;28;20633;-83